sensor_id;sensor_type;location;lat;lon;timestamp;pressure;altitude;pressure_sealevel;temperature;humidity
4972;BME280;2501;51.214;6.768;2022-12-07T00:02:07;101445.34;;;4.63;100.00
4972;BME280;2501;51.214;6.768;2022-12-07T00:04:35;101443.88;;;4.69;100.00
4972;BME280;2501;51.214;6.768;2022-12-07T00:07:04;101437.84;;;4.70;100.00
4972;BME280;2501;51.214;6.768;2022-12-07T00:09:35;101443.03;;;4.70;100.00
4972;BME280;2501;51.214;6.768;2022-12-07T00:12:04;101440.56;;;4.73;100.00
4972;BME280;2501;51.214;6.768;2022-12-07T00:14:33;101435.19;;;4.69;100.00
4972;BME280;2501;51.214;6.768;2022-12-07T00:17:01;101440.69;;;4.76;100.00
4972;BME280;2501;51.214;6.768;2022-12-07T00:19:30;101442.53;;;4.79;100.00
4972;BME280;2501;51.214;6.768;2022-12-07T00:21:58;101443.44;;;4.59;100.00
4972;BME280;2501;51.214;6.768;2022-12-07T00:24:27;101440.22;;;4.64;100.00
4972;BME280;2501;51.214;6.768;2022-12-07T00:26:58;101439.41;;;4.87;100.00
4972;BME280;2501;51.214;6.768;2022-12-07T00:29:26;101444.13;;;4.75;100.00
4972;BME280;2501;51.214;6.768;2022-12-07T00:31:55;101441.09;;;4.65;100.00
4972;BME280;2501;51.214;6.768;2022-12-07T00:34:23;101434.06;;;4.62;100.00
4972;BME280;2501;51.214;6.768;2022-12-07T00:36:51;101444.06;;;4.53;100.00
4972;BME280;2501;51.214;6.768;2022-12-07T00:39:20;101436.19;;;4.51;100.00
4972;BME280;2501;51.214;6.768;2022-12-07T00:41:48;101434.50;;;4.52;100.00
4972;BME280;2501;51.214;6.768;2022-12-07T00:44:19;101430.09;;;4.49;100.00
4972;BME280;2501;51.214;6.768;2022-12-07T00:46:48;101430.25;;;4.54;100.00
4972;BME280;2501;51.214;6.768;2022-12-07T00:49:16;101425.00;;;4.52;100.00
4972;BME280;2501;51.214;6.768;2022-12-07T00:51:44;101430.38;;;4.57;100.00
4972;BME280;2501;51.214;6.768;2022-12-07T00:54:13;101425.06;;;4.54;100.00
4972;BME280;2501;51.214;6.768;2022-12-07T00:56:41;101425.31;;;4.60;100.00
4972;BME280;2501;51.214;6.768;2022-12-07T00:59:12;101427.66;;;4.54;100.00
4972;BME280;2501;51.214;6.768;2022-12-07T01:01:44;101426.00;;;4.56;100.00
4972;BME280;2501;51.214;6.768;2022-12-07T01:04:13;101427.59;;;4.52;100.00
4972;BME280;2501;51.214;6.768;2022-12-07T01:06:41;101420.63;;;4.51;100.00
4972;BME280;2501;51.214;6.768;2022-12-07T01:09:09;101419.38;;;4.42;100.00
4972;BME280;2501;51.214;6.768;2022-12-07T01:11:38;101416.22;;;4.49;100.00
4972;BME280;2501;51.214;6.768;2022-12-07T01:14:06;101419.69;;;4.49;100.00
4972;BME280;2501;51.214;6.768;2022-12-07T01:16:34;101415.41;;;4.51;100.00
4972;BME280;2501;51.214;6.768;2022-12-07T01:19:05;101425.81;;;4.51;100.00
4972;BME280;2501;51.214;6.768;2022-12-07T01:21:35;101419.84;;;4.54;100.00
4972;BME280;2501;51.214;6.768;2022-12-07T01:27:14;101424.94;;;4.51;100.00
4972;BME280;2501;51.214;6.768;2022-12-07T01:29:42;101418.00;;;4.50;100.00
4972;BME280;2501;51.214;6.768;2022-12-07T01:32:11;101416.25;;;4.50;100.00
4972;BME280;2501;51.214;6.768;2022-12-07T01:34:42;101427.84;;;4.59;100.00
4972;BME280;2501;51.214;6.768;2022-12-07T01:37:10;101418.28;;;4.58;100.00
4972;BME280;2501;51.214;6.768;2022-12-07T01:39:39;101418.47;;;4.62;100.00
4972;BME280;2501;51.214;6.768;2022-12-07T01:42:09;101420.13;;;4.60;100.00
4972;BME280;2501;51.214;6.768;2022-12-07T01:47:41;101426.84;;;4.55;100.00
4972;BME280;2501;51.214;6.768;2022-12-07T01:50:14;101417.25;;;4.54;100.00
4972;BME280;2501;51.214;6.768;2022-12-07T01:52:44;101420.63;;;4.51;100.00
4972;BME280;2501;51.214;6.768;2022-12-07T01:55:14;101415.31;;;4.48;100.00
4972;BME280;2501;51.214;6.768;2022-12-07T01:57:46;101417.66;;;4.42;100.00
4972;BME280;2501;51.214;6.768;2022-12-07T02:00:16;101408.03;;;4.40;100.00
4972;BME280;2501;51.214;6.768;2022-12-07T02:02:48;101407.34;;;4.44;100.00
4972;BME280;2501;51.214;6.768;2022-12-07T02:05:23;101407.06;;;4.38;100.00
4972;BME280;2501;51.214;6.768;2022-12-07T02:07:55;101412.34;;;4.39;100.00
4972;BME280;2501;51.214;6.768;2022-12-07T02:10:25;101410.75;;;4.43;100.00
4972;BME280;2501;51.214;6.768;2022-12-07T02:12:57;101414.31;;;4.45;100.00
4972;BME280;2501;51.214;6.768;2022-12-07T02:15:38;101411.56;;;4.42;100.00
4972;BME280;2501;51.214;6.768;2022-12-07T02:18:15;101409.31;;;4.49;100.00
4972;BME280;2501;51.214;6.768;2022-12-07T02:20:54;101404.28;;;4.33;100.00
4972;BME280;2501;51.214;6.768;2022-12-07T02:23:52;101406.06;;;4.34;100.00
4972;BME280;2501;51.214;6.768;2022-12-07T02:29:45;101404.13;;;4.29;100.00
4972;BME280;2501;51.214;6.768;2022-12-07T02:32:18;101407.25;;;4.22;100.00
4972;BME280;2501;51.214;6.768;2022-12-07T02:34:50;101409.38;;;4.30;100.00
4972;BME280;2501;51.214;6.768;2022-12-07T02:37:39;101414.88;;;4.38;100.00
4972;BME280;2501;51.214;6.768;2022-12-07T02:40:14;101414.81;;;4.36;100.00
4972;BME280;2501;51.214;6.768;2022-12-07T02:42:50;101407.59;;;4.29;100.00
4972;BME280;2501;51.214;6.768;2022-12-07T02:45:22;101409.16;;;4.26;100.00
4972;BME280;2501;51.214;6.768;2022-12-07T02:47:56;101408.22;;;4.24;100.00
4972;BME280;2501;51.214;6.768;2022-12-07T02:50:26;101407.25;;;4.22;100.00
4972;BME280;2501;51.214;6.768;2022-12-07T02:52:55;101408.22;;;4.24;100.00
4972;BME280;2501;51.214;6.768;2022-12-07T02:55:28;101404.81;;;4.25;100.00
4972;BME280;2501;51.214;6.768;2022-12-07T02:58:07;101405.63;;;4.24;100.00
4972;BME280;2501;51.214;6.768;2022-12-07T03:00:52;101415.19;;;4.25;100.00
4972;BME280;2501;51.214;6.768;2022-12-07T03:03:23;101403.34;;;4.31;100.00
4972;BME280;2501;51.214;6.768;2022-12-07T03:06:01;101405.16;;;4.34;100.00
4972;BME280;2501;51.214;6.768;2022-12-07T03:08:50;101405.16;;;4.34;100.00
4972;BME280;2501;51.214;6.768;2022-12-07T03:11:25;101398.47;;;4.39;100.00
4972;BME280;2501;51.214;6.768;2022-12-07T03:14:00;101406.06;;;4.34;100.00
4972;BME280;2501;51.214;6.768;2022-12-07T03:16:37;101413.34;;;4.22;100.00
4972;BME280;2501;51.214;6.768;2022-12-07T03:19:13;101411.38;;;4.16;100.00
4972;BME280;2501;51.214;6.768;2022-12-07T03:21:47;101409.78;;;4.20;100.00
4972;BME280;2501;51.214;6.768;2022-12-07T03:24:20;101407.06;;;4.17;100.00
4972;BME280;2501;51.214;6.768;2022-12-07T03:26:53;101414.22;;;4.23;100.00
4972;BME280;2501;51.214;6.768;2022-12-07T03:29:26;101409.09;;;4.24;100.00
4972;BME280;2501;51.214;6.768;2022-12-07T03:32:02;101404.03;;;4.27;100.00
4972;BME280;2501;51.214;6.768;2022-12-07T03:34:36;101413.97;;;4.16;100.00
4972;BME280;2501;51.214;6.768;2022-12-07T03:37:12;101408.84;;;4.18;100.00
4972;BME280;2501;51.214;6.768;2022-12-07T03:39:50;101411.63;;;4.23;100.00
4972;BME280;2501;51.214;6.768;2022-12-07T03:42:22;101408.09;;;4.20;100.00
4972;BME280;2501;51.214;6.768;2022-12-07T03:44:51;101409.63;;;4.15;100.00
4972;BME280;2501;51.214;6.768;2022-12-07T03:47:28;101405.50;;;4.20;100.00
4972;BME280;2501;51.214;6.768;2022-12-07T03:50:00;101397.50;;;4.37;100.00
4972;BME280;2501;51.214;6.768;2022-12-07T03:52:34;101405.06;;;4.31;100.00
4972;BME280;2501;51.214;6.768;2022-12-07T03:55:08;101397.63;;;4.19;100.00
4972;BME280;2501;51.214;6.768;2022-12-07T03:57:39;101400.53;;;4.06;100.00
4972;BME280;2501;51.214;6.768;2022-12-07T04:00:11;101397.47;;;4.14;100.00
4972;BME280;2501;51.214;6.768;2022-12-07T04:02:42;101402.47;;;4.10;100.00
4972;BME280;2501;51.214;6.768;2022-12-07T04:05:11;101398.66;;;4.23;100.00
4972;BME280;2501;51.214;6.768;2022-12-07T04:07:40;101406.91;;;4.12;100.00
4972;BME280;2501;51.214;6.768;2022-12-07T04:10:09;101404.84;;;4.05;100.00
4972;BME280;2501;51.214;6.768;2022-12-07T04:12:38;101400.53;;;4.06;100.00
4972;BME280;2501;51.214;6.768;2022-12-07T04:15:08;101404.47;;;3.96;100.00
4972;BME280;2501;51.214;6.768;2022-12-07T04:17:36;101403.06;;;4.04;100.00
4972;BME280;2501;51.214;6.768;2022-12-07T04:20:09;101405.34;;;4.17;100.00
4972;BME280;2501;51.214;6.768;2022-12-07T04:22:38;101401.19;;;4.21;100.00
4972;BME280;2501;51.214;6.768;2022-12-07T04:25:07;101403.97;;;4.26;100.00
4972;BME280;2501;51.214;6.768;2022-12-07T04:27:35;101406.25;;;4.18;100.00
4972;BME280;2501;51.214;6.768;2022-12-07T04:30:05;101400.00;;;4.13;100.00
4972;BME280;2501;51.214;6.768;2022-12-07T04:32:33;101390.59;;;4.16;100.00
4972;BME280;2501;51.214;6.768;2022-12-07T04:35:03;101394.09;;;4.17;100.00
4972;BME280;2501;51.214;6.768;2022-12-07T04:37:34;101388.28;;;4.23;100.00
4972;BME280;2501;51.214;6.768;2022-12-07T04:40:06;101387.84;;;4.33;100.00
4972;BME280;2501;51.214;6.768;2022-12-07T04:42:36;101391.19;;;4.09;100.00
4972;BME280;2501;51.214;6.768;2022-12-07T04:45:06;101404.16;;;4.09;100.00
4972;BME280;2501;51.214;6.768;2022-12-07T04:47:35;101393.78;;;4.09;100.00
4972;BME280;2501;51.214;6.768;2022-12-07T04:50:05;101400.34;;;4.01;100.00
4972;BME280;2501;51.214;6.768;2022-12-07T04:52:36;101392.44;;;3.98;100.00
4972;BME280;2501;51.214;6.768;2022-12-07T04:55:05;101392.56;;;4.01;100.00
4972;BME280;2501;51.214;6.768;2022-12-07T04:57:34;101392.47;;;4.00;100.00
4972;BME280;2501;51.214;6.768;2022-12-07T05:00:03;101386.53;;;4.02;100.00
4972;BME280;2501;51.214;6.768;2022-12-07T05:02:31;101386.06;;;4.11;100.00
4972;BME280;2501;51.214;6.768;2022-12-07T05:05:00;101383.63;;;3.95;100.00
4972;BME280;2501;51.214;6.768;2022-12-07T05:07:28;101377.31;;;4.09;100.00
4972;BME280;2501;51.214;6.768;2022-12-07T05:09:59;101378.28;;;4.32;100.00
4972;BME280;2501;51.214;6.768;2022-12-07T05:12:28;101381.75;;;4.32;100.00
4972;BME280;2501;51.214;6.768;2022-12-07T05:14:56;101386.25;;;4.15;100.00
4972;BME280;2501;51.214;6.768;2022-12-07T05:17:25;101388.00;;;4.16;100.00
4972;BME280;2501;51.214;6.768;2022-12-07T05:19:54;101393.91;;;4.12;100.00
4972;BME280;2501;51.214;6.768;2022-12-07T05:22:23;101391.94;;;4.07;100.00
4972;BME280;2501;51.214;6.768;2022-12-07T05:24:53;101397.06;;;4.05;100.00
4972;BME280;2501;51.214;6.768;2022-12-07T05:27:24;101399.44;;;4.01;100.00
4972;BME280;2501;51.214;6.768;2022-12-07T05:29:53;101400.25;;;3.98;100.00
4972;BME280;2501;51.214;6.768;2022-12-07T05:32:21;101402.75;;;3.97;100.00
4972;BME280;2501;51.214;6.768;2022-12-07T05:34:49;101401.97;;;3.99;100.00
4972;BME280;2501;51.214;6.768;2022-12-07T05:37:20;101396.69;;;3.96;100.00
4972;BME280;2501;51.214;6.768;2022-12-07T05:39:48;101387.13;;;3.95;100.00
4972;BME280;2501;51.214;6.768;2022-12-07T05:42:17;101388.19;;;4.00;100.00
4972;BME280;2501;51.214;6.768;2022-12-07T05:44:48;101385.72;;;4.03;100.00
4972;BME280;2501;51.214;6.768;2022-12-07T05:47:16;101380.94;;;4.12;100.00
4972;BME280;2501;51.214;6.768;2022-12-07T05:49:45;101377.63;;;4.16;100.00
4972;BME280;2501;51.214;6.768;2022-12-07T05:52:13;101379.53;;;4.20;100.00
4972;BME280;2501;51.214;6.768;2022-12-07T05:54:41;101381.81;;;4.13;100.00
4972;BME280;2501;51.214;6.768;2022-12-07T05:57:10;101379.16;;;4.11;100.00
4972;BME280;2501;51.214;6.768;2022-12-07T05:59:38;101380.34;;;4.19;100.00
4972;BME280;2501;51.214;6.768;2022-12-07T06:02:09;101379.72;;;4.25;100.00
4972;BME280;2501;51.214;6.768;2022-12-07T06:04:40;101384.09;;;4.26;100.00
4972;BME280;2501;51.214;6.768;2022-12-07T06:07:09;101378.78;;;4.23;100.00
4972;BME280;2501;51.214;6.768;2022-12-07T06:09:38;101382.88;;;4.18;100.00
4972;BME280;2501;51.214;6.768;2022-12-07T06:12:09;101384.91;;;4.25;100.00
4972;BME280;2501;51.214;6.768;2022-12-07T06:14:50;101380.88;;;4.32;100.00
4972;BME280;2501;51.214;6.768;2022-12-07T06:17:21;101387.63;;;4.07;100.00
4972;BME280;2501;51.214;6.768;2022-12-07T06:19:50;101384.59;;;4.38;100.00
4972;BME280;2501;51.214;6.768;2022-12-07T06:22:18;101386.22;;;4.36;100.00
4972;BME280;2501;51.214;6.768;2022-12-07T06:24:47;101392.50;;;4.41;100.00
4972;BME280;2501;51.214;6.768;2022-12-07T06:27:15;101389.56;;;4.54;100.00
4972;BME280;2501;51.214;6.768;2022-12-07T06:29:44;101389.78;;;4.38;100.00
4972;BME280;2501;51.214;6.768;2022-12-07T06:32:12;101394.78;;;4.34;100.00
4972;BME280;2501;51.214;6.768;2022-12-07T06:34:43;101395.03;;;4.19;100.00
4972;BME280;2501;51.214;6.768;2022-12-07T06:37:12;101391.88;;;4.26;100.00
4972;BME280;2501;51.214;6.768;2022-12-07T06:39:41;101396.56;;;4.35;100.00
4972;BME280;2501;51.214;6.768;2022-12-07T06:42:10;101400.22;;;4.40;100.00
4972;BME280;2501;51.214;6.768;2022-12-07T06:44:39;101400.56;;;4.47;100.00
4972;BME280;2501;51.214;6.768;2022-12-07T06:47:07;101391.00;;;4.46;100.00
4972;BME280;2501;51.214;6.768;2022-12-07T06:49:37;101392.63;;;4.44;100.00
4972;BME280;2501;51.214;6.768;2022-12-07T06:52:08;101392.84;;;4.28;100.00
4972;BME280;2501;51.214;6.768;2022-12-07T06:54:36;101395.38;;;4.27;100.00
4972;BME280;2501;51.214;6.768;2022-12-07T06:57:05;101391.50;;;4.38;100.00
4972;BME280;2501;51.214;6.768;2022-12-07T06:59:33;101388.53;;;4.49;100.00
4972;BME280;2501;51.214;6.768;2022-12-07T07:02:01;101393.34;;;4.40;100.00
4972;BME280;2501;51.214;6.768;2022-12-07T07:04:30;101392.56;;;4.43;100.00
4972;BME280;2501;51.214;6.768;2022-12-07T07:06:58;101399.75;;;4.48;100.00
4972;BME280;2501;51.214;6.768;2022-12-07T07:09:29;101399.97;;;4.34;100.00
4972;BME280;2501;51.214;6.768;2022-12-07T07:11:58;101403.28;;;4.30;100.00
4972;BME280;2501;51.214;6.768;2022-12-07T07:14:26;101395.50;;;4.30;100.00
4972;BME280;2501;51.214;6.768;2022-12-07T07:16:55;101399.53;;;4.65;100.00
4972;BME280;2501;51.214;6.768;2022-12-07T07:19:23;101398.31;;;4.36;100.00
4972;BME280;2501;51.214;6.768;2022-12-07T07:21:51;101391.00;;;4.26;100.00
4972;BME280;2501;51.214;6.768;2022-12-07T07:24:20;101400.09;;;4.16;100.00
4972;BME280;2501;51.214;6.768;2022-12-07T07:26:51;101400.28;;;4.20;100.00
4972;BME280;2501;51.214;6.768;2022-12-07T07:29:19;101405.28;;;4.16;100.00
4972;BME280;2501;51.214;6.768;2022-12-07T07:31:48;101400.97;;;4.16;100.00
4972;BME280;2501;51.214;6.768;2022-12-07T07:34:17;101401.13;;;4.19;100.00
4972;BME280;2501;51.214;6.768;2022-12-07T07:36:45;101408.91;;;4.19;100.00
4972;BME280;2501;51.214;6.768;2022-12-07T07:39:14;101404.72;;;4.23;100.00
4972;BME280;2501;51.214;6.768;2022-12-07T07:41:42;101414.03;;;4.18;100.00
4972;BME280;2501;51.214;6.768;2022-12-07T07:44:13;101408.75;;;4.15;100.00
4972;BME280;2501;51.214;6.768;2022-12-07T07:46:42;101399.28;;;3.96;100.00
4972;BME280;2501;51.214;6.768;2022-12-07T07:49:10;101406.56;;;4.05;100.00
4972;BME280;2501;51.214;6.768;2022-12-07T07:51:39;101412.38;;;4.20;100.00
4972;BME280;2501;51.214;6.768;2022-12-07T07:54:07;101401.38;;;4.05;100.00
4972;BME280;2501;51.214;6.768;2022-12-07T07:56:35;101407.16;;;3.99;100.00
4972;BME280;2501;51.214;6.768;2022-12-07T07:59:04;101413.34;;;3.82;100.00
4972;BME280;2501;51.214;6.768;2022-12-07T08:01:35;101418.53;;;3.82;100.00
4972;BME280;2501;51.214;6.768;2022-12-07T08:04:04;101418.44;;;3.79;100.00
4972;BME280;2501;51.214;6.768;2022-12-07T08:06:32;101419.34;;;3.81;100.00
4972;BME280;2501;51.214;6.768;2022-12-07T08:09:01;101420.13;;;3.78;100.00
4972;BME280;2501;51.214;6.768;2022-12-07T08:11:31;101417.41;;;3.75;100.00
4972;BME280;2501;51.214;6.768;2022-12-07T08:13:59;101421.69;;;3.75;100.00
4972;BME280;2501;51.214;6.768;2022-12-07T08:16:28;101417.19;;;3.90;100.00
4972;BME280;2501;51.214;6.768;2022-12-07T08:18:59;101422.13;;;4.05;100.00
4972;BME280;2501;51.214;6.768;2022-12-07T08:21:27;101427.91;;;3.98;100.00
4972;BME280;2501;51.214;6.768;2022-12-07T08:23:57;101426.28;;;4.01;100.00
4972;BME280;2501;51.214;6.768;2022-12-07T08:26:25;101434.00;;;4.00;100.00
4972;BME280;2501;51.214;6.768;2022-12-07T08:28:54;101433.00;;;4.15;100.00
4972;BME280;2501;51.214;6.768;2022-12-07T08:31:22;101435.59;;;4.15;100.00
4972;BME280;2501;51.214;6.768;2022-12-07T08:33:51;101444.22;;;4.16;100.00
4972;BME280;2501;51.214;6.768;2022-12-07T08:36:22;101428.63;;;4.14;100.00
4972;BME280;2501;51.214;6.768;2022-12-07T08:38:51;101431.25;;;4.16;100.00
4972;BME280;2501;51.214;6.768;2022-12-07T08:41:19;101431.22;;;4.14;100.00
4972;BME280;2501;51.214;6.768;2022-12-07T08:43:47;101439.31;;;4.22;100.00
4972;BME280;2501;51.214;6.768;2022-12-07T08:46:19;101434.69;;;4.15;100.00
4972;BME280;2501;51.214;6.768;2022-12-07T08:48:53;101436.28;;;4.32;100.00
4972;BME280;2501;51.214;6.768;2022-12-07T08:51:26;101427.28;;;4.24;100.00
4972;BME280;2501;51.214;6.768;2022-12-07T08:53:55;101427.34;;;4.26;100.00
4972;BME280;2501;51.214;6.768;2022-12-07T08:56:26;101433.69;;;4.11;100.00
4972;BME280;2501;51.214;6.768;2022-12-07T08:58:55;101433.91;;;4.17;100.00
4972;BME280;2501;51.214;6.768;2022-12-07T09:01:23;101433.34;;;4.04;100.00
4972;BME280;2501;51.214;6.768;2022-12-07T09:03:52;101427.75;;;3.95;100.00
4972;BME280;2501;51.214;6.768;2022-12-07T09:06:21;101429.59;;;3.97;100.00
4972;BME280;2501;51.214;6.768;2022-12-07T09:08:56;101429.16;;;4.07;100.00
4972;BME280;2501;51.214;6.768;2022-12-07T09:11:26;101427.84;;;4.17;100.00
4972;BME280;2501;51.214;6.768;2022-12-07T09:13:55;101423.09;;;4.07;100.00
4972;BME280;2501;51.214;6.768;2022-12-07T09:16:23;101426.06;;;4.37;100.00
4972;BME280;2501;51.214;6.768;2022-12-07T09:18:51;101421.34;;;4.90;100.00
4972;BME280;2501;51.214;6.768;2022-12-07T09:21:20;101425.59;;;5.11;100.00
4972;BME280;2501;51.214;6.768;2022-12-07T09:23:48;101427.66;;;4.97;98.18
4972;BME280;2501;51.214;6.768;2022-12-07T09:26:20;101416.06;;;4.89;97.92
4972;BME280;2501;51.214;6.768;2022-12-07T09:28:48;101412.78;;;4.93;96.87
4972;BME280;2501;51.214;6.768;2022-12-07T09:31:16;101429.56;;;5.01;96.88
4972;BME280;2501;51.214;6.768;2022-12-07T09:33:45;101419.09;;;4.77;96.98
4972;BME280;2501;51.214;6.768;2022-12-07T09:36:13;101431.44;;;4.83;97.00
4972;BME280;2501;51.214;6.768;2022-12-07T09:38:42;101425.91;;;4.96;97.22
4972;BME280;2501;51.214;6.768;2022-12-07T09:41:10;101432.00;;;5.19;96.55
4972;BME280;2501;51.214;6.768;2022-12-07T09:43:42;101435.25;;;5.37;95.92
4972;BME280;2501;51.214;6.768;2022-12-07T09:46:13;101425.94;;;5.20;95.98
4972;BME280;2501;51.214;6.768;2022-12-07T09:48:44;101430.94;;;5.14;95.90
4972;BME280;2501;51.214;6.768;2022-12-07T09:51:17;101434.59;;;4.97;96.01
4972;BME280;2501;51.214;6.768;2022-12-07T09:53:47;101425.91;;;4.96;96.33
4972;BME280;2501;51.214;6.768;2022-12-07T09:56:17;101430.56;;;5.05;96.51
4972;BME280;2501;51.214;6.768;2022-12-07T09:58:57;101422.47;;;4.97;96.21
4972;BME280;2501;51.214;6.768;2022-12-07T10:01:28;101424.19;;;4.97;96.30
4972;BME280;2501;51.214;6.768;2022-12-07T10:04:05;101421.81;;;5.03;96.40
4972;BME280;2501;51.214;6.768;2022-12-07T10:06:34;101416.56;;;5.01;96.29
4972;BME280;2501;51.214;6.768;2022-12-07T10:09:09;101411.00;;;4.92;95.83
4972;BME280;2501;51.214;6.768;2022-12-07T10:12:00;101416.72;;;5.06;95.76
4972;BME280;2501;51.214;6.768;2022-12-07T10:14:33;101405.22;;;4.99;95.35
4972;BME280;2501;51.214;6.768;2022-12-07T10:17:02;101408.69;;;5.22;95.20
4972;BME280;2501;51.214;6.768;2022-12-07T10:19:32;101408.28;;;5.34;94.35
4972;BME280;2501;51.214;6.768;2022-12-07T10:22:04;101410.13;;;5.38;93.89
4972;BME280;2501;51.214;6.768;2022-12-07T10:24:33;101404.16;;;5.40;93.41
4972;BME280;2501;51.214;6.768;2022-12-07T10:27:03;101402.81;;;5.50;93.28
4972;BME280;2501;51.214;6.768;2022-12-07T10:29:36;101400.94;;;5.23;93.34
4972;BME280;2501;51.214;6.768;2022-12-07T10:32:30;101397.88;;;5.34;93.66
4972;BME280;2501;51.214;6.768;2022-12-07T10:35:22;101401.88;;;5.25;93.12
4972;BME280;2501;51.214;6.768;2022-12-07T10:37:52;101398.06;;;5.16;93.41
4972;BME280;2501;51.214;6.768;2022-12-07T10:40:27;101389.81;;;5.50;93.21
4972;BME280;2501;51.214;6.768;2022-12-07T10:43:04;101391.59;;;5.29;92.95
4972;BME280;2501;51.214;6.768;2022-12-07T10:45:45;101392.44;;;5.28;92.83
4972;BME280;2501;51.214;6.768;2022-12-07T10:48:32;101388.91;;;5.49;92.54
4972;BME280;2501;51.214;6.768;2022-12-07T10:51:07;101387.63;;;5.38;91.77
4972;BME280;2501;51.214;6.768;2022-12-07T10:53:49;101379.16;;;5.44;91.74
4972;BME280;2501;51.214;6.768;2022-12-07T10:56:44;101376.19;;;5.33;91.39
4972;BME280;2501;51.214;6.768;2022-12-07T10:59:34;101371.19;;;5.63;91.26
4972;BME280;2501;51.214;6.768;2022-12-07T11:02:21;101371.13;;;5.38;90.67
4972;BME280;2501;51.214;6.768;2022-12-07T11:05:00;101367.44;;;5.31;90.98
4972;BME280;2501;51.214;6.768;2022-12-07T11:07:38;101368.41;;;5.58;91.19
4972;BME280;2501;51.214;6.768;2022-12-07T11:10:16;101358.34;;;5.68;90.12
4972;BME280;2501;51.214;6.768;2022-12-07T11:12:59;101359.78;;;5.59;89.41
4972;BME280;2501;51.214;6.768;2022-12-07T11:15:37;101359.75;;;5.34;89.76
4972;BME280;2501;51.214;6.768;2022-12-07T11:18:19;101359.19;;;5.43;90.52
4972;BME280;2501;51.214;6.768;2022-12-07T11:20:53;101352.00;;;5.36;90.06
4972;BME280;2501;51.214;6.768;2022-12-07T11:23:29;101358.84;;;5.34;89.90
4972;BME280;2501;51.214;6.768;2022-12-07T11:26:07;101346.47;;;5.50;90.17
4972;BME280;2501;51.214;6.768;2022-12-07T11:28:59;101346.47;;;5.50;89.02
4972;BME280;2501;51.214;6.768;2022-12-07T11:31:37;101333.16;;;5.67;88.93
4972;BME280;2501;51.214;6.768;2022-12-07T11:34:19;101334.75;;;5.63;88.62
4972;BME280;2501;51.214;6.768;2022-12-07T11:36:52;101326.53;;;5.76;88.26
4972;BME280;2501;51.214;6.768;2022-12-07T11:39:26;101319.44;;;5.72;87.93
4972;BME280;2501;51.214;6.768;2022-12-07T11:42:00;101321.81;;;5.65;87.56
4972;BME280;2501;51.214;6.768;2022-12-07T11:44:34;101323.59;;;5.91;87.26
4972;BME280;2501;51.214;6.768;2022-12-07T11:47:07;101317.41;;;5.87;86.82
4972;BME280;2501;51.214;6.768;2022-12-07T11:49:43;101317.59;;;6.19;86.59
4972;BME280;2501;51.214;6.768;2022-12-07T11:52:20;101317.19;;;6.07;85.95
4972;BME280;2501;51.214;6.768;2022-12-07T11:54:52;101312.78;;;6.04;85.90
4972;BME280;2501;51.214;6.768;2022-12-07T11:57:26;101300.09;;;6.15;86.19
4972;BME280;2501;51.214;6.768;2022-12-07T12:00:00;101308.47;;;6.05;85.69
4972;BME280;2501;51.214;6.768;2022-12-07T12:02:34;101302.75;;;6.16;85.15
4972;BME280;2501;51.214;6.768;2022-12-07T12:05:16;101307.91;;;6.42;84.42
4972;BME280;2501;51.214;6.768;2022-12-07T12:07:48;101303.56;;;6.42;84.32
4972;BME280;2501;51.214;6.768;2022-12-07T12:10:26;101300.19;;;6.45;84.75
4972;BME280;2501;51.214;6.768;2022-12-07T12:13:08;101300.00;;;6.39;85.08
4972;BME280;2501;51.214;6.768;2022-12-07T12:15:53;101303.31;;;6.61;84.11
4972;BME280;2501;51.214;6.768;2022-12-07T12:18:43;101295.91;;;6.47;82.39
4972;BME280;2501;51.214;6.768;2022-12-07T12:21:19;101301.41;;;6.29;81.48
4972;BME280;2501;51.214;6.768;2022-12-07T12:23:50;101299.59;;;6.26;81.33
4972;BME280;2501;51.214;6.768;2022-12-07T12:26:24;101288.56;;;6.34;81.92
4972;BME280;2501;51.214;6.768;2022-12-07T12:28:56;101285.84;;;6.59;82.00
4972;BME280;2501;51.214;6.768;2022-12-07T12:31:37;101287.75;;;6.64;81.82
4972;BME280;2501;51.214;6.768;2022-12-07T12:34:32;101275.72;;;6.68;81.64
4972;BME280;2501;51.214;6.768;2022-12-07T12:42:57;101272.34;;;6.44;81.43
4972;BME280;2501;51.214;6.768;2022-12-07T12:45:27;101271.56;;;6.46;81.54
4972;BME280;2501;51.214;6.768;2022-12-07T12:47:57;101269.69;;;6.42;81.53
4972;BME280;2501;51.214;6.768;2022-12-07T12:50:29;101267.72;;;6.34;82.40
4972;BME280;2501;51.214;6.768;2022-12-07T12:53:12;101271.97;;;6.32;83.09
4972;BME280;2501;51.214;6.768;2022-12-07T12:58:35;101261.03;;;6.15;84.01
4972;BME280;2501;51.214;6.768;2022-12-07T13:04:16;101254.84;;;6.11;84.79
4972;BME280;2501;51.214;6.768;2022-12-07T13:06:45;101260.94;;;6.12;84.90
4972;BME280;2501;51.214;6.768;2022-12-07T13:09:22;101251.72;;;6.21;85.06
4972;BME280;2501;51.214;6.768;2022-12-07T13:11:58;101264.94;;;6.29;84.70
4972;BME280;2501;51.214;6.768;2022-12-07T13:14:58;101252.44;;;6.17;84.54
4972;BME280;2501;51.214;6.768;2022-12-07T13:17:58;101249.88;;;6.19;85.10
4972;BME280;2501;51.214;6.768;2022-12-07T13:20:49;101248.72;;;6.38;85.35
4972;BME280;2501;51.214;6.768;2022-12-07T13:23:32;101248.38;;;6.27;84.96
4972;BME280;2501;51.214;6.768;2022-12-07T13:26:17;101243.59;;;6.41;85.24
4972;BME280;2501;51.214;6.768;2022-12-07T13:28:47;101244.09;;;6.29;85.03
4972;BME280;2501;51.214;6.768;2022-12-07T13:31:25;101240.03;;;6.10;85.37
4972;BME280;2501;51.214;6.768;2022-12-07T13:33:57;101237.31;;;6.06;85.77
4972;BME280;2501;51.214;6.768;2022-12-07T13:36:27;101228.41;;;5.99;85.81
4972;BME280;2501;51.214;6.768;2022-12-07T13:39:11;101234.56;;;6.01;85.54
4972;BME280;2501;51.214;6.768;2022-12-07T13:41:50;101232.22;;;6.10;85.23
4972;BME280;2501;51.214;6.768;2022-12-07T13:44:21;101229.69;;;6.12;85.04
4972;BME280;2501;51.214;6.768;2022-12-07T13:46:56;101233.00;;;6.08;84.89
4972;BME280;2501;51.214;6.768;2022-12-07T13:49:27;101226.09;;;6.08;85.22
4972;BME280;2501;51.214;6.768;2022-12-07T13:52:14;101218.91;;;6.28;85.02
4972;BME280;2501;51.214;6.768;2022-12-07T13:54:45;101219.50;;;6.19;84.35
4972;BME280;2501;51.214;6.768;2022-12-07T13:57:17;101225.09;;;6.32;84.04
4972;BME280;2501;51.214;6.768;2022-12-07T13:59:46;101220.16;;;6.12;83.20
4972;BME280;2501;51.214;6.768;2022-12-07T14:02:19;101217.75;;;6.18;82.79
4972;BME280;2501;51.214;6.768;2022-12-07T14:04:49;101208.53;;;6.01;82.23